createdAt,value
2019-05-29T00:00:05.842Z,11.60
2019-05-29T00:02:35.747Z,11.70
2019-05-29T00:05:06.009Z,11.70
2019-05-29T00:07:35.268Z,11.80
2019-05-29T00:10:06.193Z,11.70
2019-05-29T00:12:35.414Z,11.70
2019-05-29T00:15:06.182Z,11.60
2019-05-29T00:24:43.662Z,11.60
2019-05-29T00:27:40.262Z,11.50
2019-05-29T00:30:06.928Z,11.50
2019-05-29T00:32:37.407Z,11.50
2019-05-29T00:35:10.201Z,11.60
2019-05-29T00:37:59.597Z,11.70
2019-05-29T00:41:21.932Z,11.60
2019-05-29T00:43:29.834Z,11.60
2019-05-29T00:45:59.663Z,11.50
2019-05-29T00:48:28.971Z,11.50
2019-05-29T00:50:58.796Z,11.40
2019-05-29T00:53:28.007Z,11.30
2019-05-29T00:55:57.433Z,11.30
2019-05-29T00:58:27.669Z,11.30
2019-05-29T01:00:57.284Z,11.30
2019-05-29T01:03:27.230Z,11.30
2019-05-29T01:05:56.642Z,11.40
2019-05-29T01:08:25.734Z,11.40
2019-05-29T01:10:55.360Z,11.40
2019-05-29T01:13:25.059Z,11.40
2019-05-29T01:15:54.446Z,11.30
2019-05-29T01:18:24.434Z,11.30
2019-05-29T01:20:53.642Z,11.30
2019-05-29T01:23:22.802Z,11.30
2019-05-29T01:25:53.049Z,11.40
2019-05-29T01:28:23.145Z,11.40
2019-05-29T01:30:53.352Z,11.40
2019-05-29T01:33:23.734Z,11.30
2019-05-29T01:35:53.394Z,11.30
2019-05-29T01:38:23.519Z,11.30
2019-05-29T01:40:52.558Z,11.30
2019-05-29T01:43:23.570Z,11.30
2019-05-29T01:45:53.273Z,11.30
2019-05-29T01:48:23.660Z,11.30
2019-05-29T01:50:53.452Z,11.30
2019-05-29T01:53:23.758Z,11.20
2019-05-29T01:55:54.039Z,11.20
2019-05-29T01:58:23.914Z,11.20
2019-05-29T02:05:02.797Z,11.30
2019-05-29T02:07:47.521Z,11.20
2019-05-29T02:10:59.945Z,11.20
2019-05-29T02:13:53.450Z,11.20
2019-05-29T02:16:41.857Z,11.20
2019-05-29T02:22:10.294Z,11.30
2019-05-29T02:24:39.871Z,11.40
2019-05-29T02:27:09.628Z,11.40
2019-05-29T02:29:39.423Z,11.40
2019-05-29T02:32:10.918Z,11.40
2019-05-29T02:34:40.765Z,11.40
2019-05-29T02:37:10.213Z,11.40
2019-05-29T02:39:41.129Z,11.30
2019-05-29T02:42:11.095Z,11.30
2019-05-29T02:47:32.585Z,11.20
2019-05-29T02:50:02.644Z,11.30
2019-05-29T02:52:32.099Z,11.40
2019-05-29T02:55:01.845Z,11.40
2019-05-29T02:57:31.855Z,11.30
2019-05-29T03:00:01.222Z,11.20
2019-05-29T03:02:31.901Z,11.20
2019-05-29T03:05:02.352Z,11.20
2019-05-29T03:07:33.051Z,11.30
2019-05-29T03:10:02.473Z,11.10
2019-05-29T03:12:33.708Z,11.00
2019-05-29T03:15:03.689Z,10.90
2019-05-29T03:17:34.173Z,11.00
2019-05-29T03:20:03.779Z,11.00
2019-05-29T03:22:35.312Z,11.00
2019-05-29T03:25:05.276Z,10.90
2019-05-29T03:27:34.745Z,10.90
2019-05-29T03:30:04.130Z,11.00
2019-05-29T03:32:42.249Z,11.00
2019-05-29T03:35:06.540Z,10.90
2019-05-29T03:37:38.514Z,11.10
2019-05-29T03:40:08.691Z,11.10
2019-05-29T03:42:39.219Z,11.00
2019-05-29T03:45:09.538Z,11.00
2019-05-29T03:47:39.309Z,11.00
2019-05-29T03:50:08.957Z,11.00
2019-05-29T03:52:39.180Z,11.00
2019-05-29T03:55:08.823Z,11.00
2019-05-29T03:57:38.473Z,11.00
2019-05-29T04:00:09.143Z,10.90
2019-05-29T04:02:38.880Z,10.90
2019-05-29T04:05:08.934Z,10.90
2019-05-29T04:07:43.979Z,10.90
2019-05-29T04:22:30.182Z,11.00
2019-05-29T04:25:01.100Z,10.90
2019-05-29T04:27:34.240Z,11.00
2019-05-29T04:30:05.483Z,11.00
2019-05-29T04:32:38.738Z,10.90
2019-05-29T04:35:07.997Z,10.90
2019-05-29T04:37:42.804Z,10.90
2019-05-29T04:40:13.933Z,11.00
2019-05-29T04:42:46.330Z,11.20
2019-05-29T04:45:15.365Z,11.20
2019-05-29T04:47:45.492Z,11.20
2019-05-29T04:50:15.595Z,11.20
2019-05-29T04:52:45.775Z,11.30
2019-05-29T04:55:17.132Z,11.30
2019-05-29T04:57:50.893Z,11.30
2019-05-29T05:00:22.894Z,11.30
2019-05-29T05:02:56.127Z,11.40
2019-05-29T05:05:25.888Z,11.40
2019-05-29T05:08:00.617Z,11.30
2019-05-29T05:10:56.113Z,11.30
2019-05-29T05:13:26.021Z,11.30
2019-05-29T05:16:02.697Z,11.20
2019-05-29T05:18:33.859Z,11.30
2019-05-29T05:21:26.664Z,11.40
2019-05-29T05:23:56.205Z,11.50
2019-05-29T05:26:26.794Z,11.50
2019-05-29T05:29:06.532Z,11.40
2019-05-29T05:31:36.481Z,11.60
2019-05-29T05:34:06.381Z,11.60
2019-05-29T05:36:38.795Z,11.50
2019-05-29T05:39:09.042Z,11.50
2019-05-29T05:41:40.976Z,11.60
2019-05-29T05:44:12.640Z,11.80
2019-05-29T05:46:43.530Z,11.90
2019-05-29T05:49:14.585Z,11.90
2019-05-29T05:51:50.217Z,11.90
2019-05-29T05:54:23.374Z,12.00
2019-05-29T05:56:53.793Z,12.10
2019-05-29T05:59:24.045Z,12.00
2019-05-29T06:01:55.582Z,12.10
2019-05-29T06:04:25.933Z,12.30
2019-05-29T06:06:56.144Z,12.20
2019-05-29T06:09:25.797Z,12.20
2019-05-29T06:11:55.263Z,12.30
2019-05-29T06:14:25.908Z,12.20
2019-05-29T06:16:56.846Z,12.40
2019-05-29T06:19:28.841Z,12.40
2019-05-29T06:22:02.161Z,12.40
2019-05-29T06:24:33.321Z,12.30
2019-05-29T06:27:04.058Z,12.30
2019-05-29T06:29:35.128Z,12.50
2019-05-29T06:32:15.999Z,12.70
2019-05-29T06:34:46.949Z,12.80
2019-05-29T06:37:18.386Z,12.80
2019-05-29T06:39:48.553Z,12.80
2019-05-29T06:42:18.210Z,12.70
2019-05-29T06:44:50.562Z,12.70
2019-05-29T06:47:20.955Z,12.70
2019-05-29T06:49:50.465Z,12.80
2019-05-29T06:52:20.870Z,13.00
2019-05-29T06:54:50.750Z,13.30
2019-05-29T06:57:26.114Z,13.30
2019-05-29T07:00:00.587Z,13.20
2019-05-29T07:02:32.065Z,13.20
2019-05-29T07:05:02.989Z,13.30
2019-05-29T07:07:32.695Z,13.40
2019-05-29T07:10:02.540Z,13.40
2019-05-29T07:12:34.488Z,13.40
2019-05-29T07:15:03.351Z,13.70
2019-05-29T07:17:31.936Z,14.00
2019-05-29T07:20:03.883Z,13.80
2019-05-29T07:22:30.569Z,13.60
2019-05-29T07:25:00.527Z,13.40
2019-05-29T07:27:30.553Z,13.30
2019-05-29T07:30:04.928Z,13.30
2019-05-29T07:32:35.038Z,13.40
2019-05-29T07:35:04.624Z,13.60
2019-05-29T07:37:34.355Z,13.60
2019-05-29T07:40:27.731Z,13.60
2019-05-29T07:42:59.776Z,13.90
2019-05-29T07:45:29.987Z,13.90
2019-05-29T07:48:01.212Z,14.20
2019-05-29T07:50:36.064Z,14.30
2019-05-29T07:53:05.940Z,14.30
2019-05-29T07:55:40.451Z,14.40
2019-05-29T07:58:11.665Z,14.40
2019-05-29T08:01:09.679Z,14.20
2019-05-29T08:03:22.900Z,14.60
2019-05-29T08:05:56.038Z,14.70
2019-05-29T08:08:26.976Z,14.50
2019-05-29T08:10:56.877Z,14.30
2019-05-29T08:13:27.607Z,14.80
2019-05-29T08:16:02.673Z,14.80
2019-05-29T08:18:30.144Z,14.70
2019-05-29T08:21:20.581Z,14.60
2019-05-29T08:23:52.679Z,14.80
2019-05-29T08:26:24.587Z,15.20
2019-05-29T08:28:53.690Z,14.90
2019-05-29T08:31:26.894Z,14.60
2019-05-29T08:33:58.832Z,14.40
2019-05-29T08:36:37.444Z,14.10
2019-05-29T08:39:07.635Z,14.00
2019-05-29T08:41:37.107Z,14.10
2019-05-29T08:44:10.049Z,14.10
2019-05-29T08:47:10.521Z,14.20
2019-05-29T08:49:36.272Z,14.20
2019-05-29T08:52:46.469Z,14.40
2019-05-29T08:55:19.531Z,14.40
2019-05-29T08:57:52.503Z,14.60
2019-05-29T09:00:37.934Z,14.60
2019-05-29T09:03:13.737Z,14.90
2019-05-29T09:05:46.769Z,15.30
2019-05-29T09:08:18.083Z,15.60
2019-05-29T09:10:49.397Z,15.80
2019-05-29T09:13:21.918Z,16.00
2019-05-29T09:15:57.189Z,15.80
2019-05-29T09:18:31.373Z,16.00
2019-05-29T09:21:03.645Z,16.20
2019-05-29T09:23:32.395Z,16.20
2019-05-29T09:26:18.821Z,16.60
2019-05-29T09:28:45.563Z,16.30
2019-05-29T09:31:24.855Z,16.70
2019-05-29T09:33:56.266Z,16.90
2019-05-29T09:39:23.388Z,17.10
2019-05-29T09:42:02.564Z,16.70
2019-05-29T09:44:38.666Z,16.90
2019-05-29T09:47:05.831Z,16.40
2019-05-29T09:49:35.726Z,16.20
2019-05-29T09:52:46.086Z,15.60
2019-05-29T09:55:17.292Z,15.80
2019-05-29T09:57:55.308Z,16.30
2019-05-29T10:00:25.725Z,16.40
2019-05-29T10:02:59.465Z,16.20
2019-05-29T10:05:29.827Z,16.30
2019-05-29T10:07:59.744Z,16.00
2019-05-29T10:10:31.946Z,15.70
2019-05-29T10:13:04.630Z,15.60
2019-05-29T10:15:37.986Z,15.40
2019-05-29T10:18:18.182Z,15.50
2019-05-29T10:20:42.406Z,15.90
2019-05-29T10:23:13.750Z,16.00
2019-05-29T10:25:43.306Z,16.10
2019-05-29T10:28:13.143Z,16.00
2019-05-29T10:30:44.365Z,15.90
2019-05-29T10:33:15.542Z,15.70
2019-05-29T10:35:44.861Z,15.60
2019-05-29T10:38:33.483Z,15.40
2019-05-29T10:57:59.352Z,17.20
2019-05-29T11:03:52.370Z,17.20
2019-05-29T11:09:43.236Z,17.30
2019-05-29T11:12:11.385Z,17.10
2019-05-29T11:15:25.117Z,16.90
2019-05-29T11:18:58.608Z,16.80
2019-05-29T11:21:40.683Z,16.90
2019-05-29T11:27:33.467Z,17.20
2019-05-29T11:30:14.529Z,17.10
2019-05-29T11:33:03.408Z,17.10
2019-05-29T11:35:37.026Z,17.10
2019-05-29T11:38:13.139Z,17.40
2019-05-29T11:41:26.765Z,17.40
2019-05-29T11:47:22.229Z,17.00
2019-05-29T11:50:16.752Z,17.10
2019-05-29T12:02:01.042Z,17.30
2019-05-29T12:04:35.214Z,17.40
2019-05-29T12:07:32.324Z,17.40
2019-05-29T12:14:11.987Z,17.40
2019-05-29T12:16:39.187Z,17.30
2019-05-29T12:19:48.983Z,17.30
2019-05-29T12:22:20.699Z,17.20
2019-05-29T12:25:02.979Z,17.10
2019-05-29T12:27:33.706Z,16.80
2019-05-29T12:30:05.498Z,16.80
2019-05-29T12:32:36.348Z,16.80
2019-05-29T12:35:06.720Z,16.90
2019-05-29T12:37:44.302Z,16.70
2019-05-29T12:40:28.412Z,16.50
2019-05-29T12:43:01.944Z,16.10
2019-05-29T12:45:37.112Z,15.60
2019-05-29T12:48:20.550Z,15.40
2019-05-29T12:54:02.642Z,15.10
2019-05-29T12:56:33.586Z,14.80
2019-05-29T12:59:06.633Z,14.50
2019-05-29T13:01:38.216Z,14.50
2019-05-29T13:04:08.366Z,14.20
2019-05-29T13:06:43.010Z,14.20
2019-05-29T13:09:13.761Z,14.10
2019-05-29T13:11:48.230Z,14.10
2019-05-29T13:14:19.576Z,14.20
2019-05-29T13:16:54.736Z,14.20
2019-05-29T13:19:31.801Z,14.20
2019-05-29T13:22:15.178Z,14.30
2019-05-29T13:25:03.480Z,14.30
2019-05-29T13:27:35.269Z,14.50
2019-05-29T13:30:14.668Z,14.50
2019-05-29T13:33:00.091Z,14.30
2019-05-29T13:35:27.603Z,14.50
2019-05-29T13:37:58.890Z,14.60
2019-05-29T13:40:34.091Z,14.50
2019-05-29T13:43:11.052Z,14.70
2019-05-29T13:45:35.757Z,14.90
2019-05-29T13:48:07.490Z,15.00
2019-05-29T13:50:37.712Z,15.10
2019-05-29T13:53:08.001Z,15.20
2019-05-29T13:55:40.076Z,15.30
2019-05-29T13:58:11.673Z,15.40
2019-05-29T14:00:47.944Z,15.50
2019-05-29T14:03:29.546Z,15.10
2019-05-29T14:06:42.141Z,15.20
2019-05-29T14:09:32.963Z,15.10
2019-05-29T14:12:19.853Z,15.10
2019-05-29T14:14:52.684Z,15.10
2019-05-29T14:17:22.210Z,15.10
2019-05-29T14:19:51.494Z,15.10
2019-05-29T14:22:29.130Z,15.00
2019-05-29T14:25:03.249Z,15.20
2019-05-29T14:27:36.489Z,15.30
2019-05-29T14:30:08.529Z,15.40
2019-05-29T14:32:41.289Z,15.60
2019-05-29T14:35:13.373Z,15.50
2019-05-29T14:37:50.328Z,15.30
2019-05-29T14:40:23.688Z,15.40
2019-05-29T14:43:07.247Z,15.40
2019-05-29T14:45:36.722Z,15.40
2019-05-29T14:48:08.170Z,15.10
2019-05-29T14:50:41.955Z,14.90
2019-05-29T14:53:13.506Z,15.00
2019-05-29T14:55:54.714Z,15.10
2019-05-29T14:58:25.065Z,15.20
2019-05-29T15:00:56.422Z,15.30
2019-05-29T15:03:26.630Z,15.40
2019-05-29T15:05:56.388Z,15.50
2019-05-29T15:08:58.839Z,15.70
2019-05-29T15:11:33.105Z,15.70
2019-05-29T15:14:06.114Z,15.90
2019-05-29T15:16:39.063Z,15.90
2019-05-29T15:19:13.246Z,15.80
2019-05-29T15:21:43.912Z,15.80
2019-05-29T15:27:19.902Z,15.70
2019-05-29T15:30:22.826Z,15.80
2019-05-29T15:32:48.631Z,15.80
2019-05-29T15:35:24.471Z,15.70
2019-05-29T15:38:09.121Z,15.30
2019-05-29T15:40:44.834Z,15.50
2019-05-29T15:43:50.147Z,15.60
2019-05-29T15:46:23.361Z,15.70
2019-05-29T15:48:55.212Z,15.60
2019-05-29T15:51:35.354Z,15.70
2019-05-29T15:54:15.293Z,15.80
2019-05-29T15:59:42.832Z,15.70
2019-05-29T16:02:31.726Z,15.50
2019-05-29T16:05:03.328Z,15.20
2019-05-29T16:07:41.133Z,15.00
2019-05-29T16:10:16.464Z,14.80
2019-05-29T16:12:46.242Z,14.80
2019-05-29T16:15:20.357Z,14.70
2019-05-29T16:17:52.494Z,14.70
2019-05-29T16:20:21.063Z,14.80
2019-05-29T16:23:05.991Z,14.60
2019-05-29T16:29:19.668Z,14.30
2019-05-29T16:31:59.268Z,14.20
2019-05-29T16:35:00.127Z,14.10
2019-05-29T16:37:31.179Z,14.30
2019-05-29T16:47:28.890Z,13.90
2019-05-29T16:53:48.279Z,14.00
2019-05-29T16:56:47.828Z,14.10
2019-05-29T16:59:25.376Z,14.30
2019-05-29T17:01:55.928Z,14.40
2019-05-29T17:04:36.960Z,14.50
2019-05-29T17:07:06.536Z,14.40
2019-05-29T17:09:35.999Z,14.20
2019-05-29T17:12:05.396Z,14.30
2019-05-29T17:14:35.332Z,14.30
2019-05-29T17:17:04.826Z,14.40
2019-05-29T17:19:34.274Z,14.30
2019-05-29T17:22:05.155Z,14.40
2019-05-29T17:24:34.283Z,14.40
2019-05-29T17:27:04.158Z,14.40
2019-05-29T17:29:33.863Z,14.40
2019-05-29T17:32:03.316Z,14.50
2019-05-29T17:34:35.062Z,14.40
2019-05-29T17:37:04.514Z,14.30
2019-05-29T17:39:36.258Z,14.30
2019-05-29T17:42:07.207Z,14.20
2019-05-29T17:44:39.141Z,14.20
2019-05-29T17:47:08.940Z,14.20
2019-05-29T17:49:39.881Z,14.30
2019-05-29T17:52:13.191Z,14.40
2019-05-29T17:54:43.027Z,14.40
2019-05-29T17:57:16.764Z,14.40
2019-05-29T17:59:48.745Z,14.40
2019-05-29T18:02:18.639Z,14.30
2019-05-29T18:04:48.130Z,14.30
2019-05-29T18:07:20.618Z,14.10
2019-05-29T18:09:54.014Z,14.20
2019-05-29T18:12:27.935Z,14.10
2019-05-29T18:14:58.649Z,14.20
2019-05-29T18:17:30.379Z,14.10
2019-05-29T18:20:00.134Z,14.10
2019-05-29T18:22:33.520Z,14.20
2019-05-29T18:25:13.654Z,14.30
2019-05-29T18:27:43.060Z,14.40
2019-05-29T18:30:14.048Z,14.40
2019-05-29T18:32:45.289Z,14.50
2019-05-29T18:35:15.268Z,14.40
2019-05-29T18:37:47.131Z,14.30
2019-05-29T18:40:18.194Z,14.20
2019-05-29T18:42:48.890Z,14.20
2019-05-29T18:45:22.767Z,14.10
2019-05-29T18:47:53.829Z,14.20
2019-05-29T18:50:23.630Z,14.10
2019-05-29T18:53:04.112Z,14.20
2019-05-29T18:55:45.594Z,14.10
2019-05-29T18:58:24.555Z,13.90
2019-05-29T19:01:04.154Z,14.00
2019-05-29T19:03:35.969Z,14.20
2019-05-29T19:06:06.074Z,14.10
2019-05-29T19:09:11.934Z,14.10
2019-05-29T19:11:46.283Z,14.20
2019-05-29T19:14:34.029Z,14.20
2019-05-29T19:17:05.474Z,14.10
2019-05-29T19:19:35.858Z,14.10
2019-05-29T19:22:05.769Z,14.00
2019-05-29T19:24:35.146Z,14.00
2019-05-29T19:27:05.150Z,13.90
2019-05-29T19:29:35.186Z,13.80
2019-05-29T19:32:05.840Z,13.90
2019-05-29T19:34:36.187Z,13.90
2019-05-29T19:37:05.605Z,13.90
2019-05-29T19:39:49.634Z,13.90
2019-05-29T19:42:21.657Z,13.80
2019-05-29T19:44:59.874Z,13.80
2019-05-29T19:47:30.909Z,13.80
2019-05-29T19:50:11.337Z,13.70
2019-05-29T19:52:46.094Z,13.80
2019-05-29T19:55:30.196Z,13.80
2019-05-29T19:58:06.517Z,13.70
2019-05-29T20:00:34.599Z,13.70
2019-05-29T20:03:20.175Z,13.90
2019-05-29T20:05:59.284Z,13.80
2019-05-29T20:08:34.566Z,13.90
2019-05-29T20:11:08.018Z,13.80
2019-05-29T20:13:49.254Z,13.80
2019-05-29T20:16:28.018Z,13.70
2019-05-29T20:19:02.316Z,13.80
2019-05-29T20:21:37.115Z,13.80
2019-05-29T20:24:09.609Z,13.80
2019-05-29T20:26:49.336Z,13.70
2019-05-29T20:29:50.079Z,13.70
2019-05-29T20:32:20.995Z,13.70
2019-05-29T20:34:52.500Z,13.60
2019-05-29T20:37:26.524Z,13.60
2019-05-29T20:40:00.937Z,13.60
2019-05-29T20:42:36.328Z,13.60
2019-05-29T20:45:07.830Z,13.60
2019-05-29T20:47:42.821Z,13.50
2019-05-29T20:50:12.347Z,13.60
2019-05-29T20:52:44.019Z,13.60
2019-05-29T20:55:15.282Z,13.60
2019-05-29T20:57:51.092Z,13.40
2019-05-29T21:00:20.814Z,13.50
2019-05-29T21:02:51.138Z,13.50
2019-05-29T21:05:21.699Z,13.60
2019-05-29T21:07:53.391Z,13.60
2019-05-29T21:10:28.452Z,13.60
2019-05-29T21:12:58.474Z,13.60
2019-05-29T21:15:28.817Z,13.50
2019-05-29T21:17:58.132Z,13.50
2019-05-29T21:23:44.658Z,13.50
2019-05-29T21:26:15.016Z,13.60
2019-05-29T21:28:50.092Z,13.50
2019-05-29T21:31:17.449Z,13.30
2019-05-29T21:33:49.193Z,13.40
2019-05-29T21:36:19.670Z,13.30
2019-05-29T21:38:49.013Z,13.30
2019-05-29T21:41:19.441Z,13.10
2019-05-29T21:43:49.206Z,13.20
2019-05-29T21:46:18.886Z,13.10
2019-05-29T21:48:48.655Z,13.10
2019-05-29T21:51:18.160Z,13.10
2019-05-29T21:53:47.716Z,13.20
2019-05-29T21:56:17.491Z,13.30
2019-05-29T21:59:00.325Z,13.30
2019-05-29T22:01:19.161Z,13.20
2019-05-29T22:03:48.882Z,13.20
2019-05-29T22:06:20.993Z,13.20
2019-05-29T22:08:51.288Z,13.20
2019-05-29T22:11:20.830Z,13.20
2019-05-29T22:13:50.574Z,13.10
2019-05-29T22:16:20.223Z,13.20
2019-05-29T22:18:50.560Z,13.20
2019-05-29T22:21:20.876Z,13.20
2019-05-29T22:23:51.002Z,13.20
2019-05-29T22:26:21.055Z,13.20
2019-05-29T22:28:51.162Z,13.20
2019-05-29T22:31:20.371Z,13.20
2019-05-29T22:33:49.792Z,13.20
2019-05-29T22:36:19.255Z,13.10
2019-05-29T22:38:49.895Z,13.10
2019-05-29T22:41:19.092Z,13.20
2019-05-29T22:43:48.228Z,13.20
2019-05-29T22:46:17.665Z,13.20
2019-05-29T22:48:47.374Z,13.20
2019-05-29T22:51:17.145Z,13.10
2019-05-29T22:53:46.955Z,13.10
2019-05-29T22:56:16.324Z,13.00
2019-05-29T22:58:45.651Z,13.00
2019-05-29T23:01:15.601Z,13.00
2019-05-29T23:03:44.802Z,13.00
2019-05-29T23:06:13.956Z,12.90
2019-05-29T23:08:44.454Z,12.90
2019-05-29T23:11:14.336Z,12.90
2019-05-29T23:13:43.919Z,12.90
2019-05-29T23:16:13.891Z,12.90
2019-05-29T23:18:43.426Z,12.80
2019-05-29T23:21:12.886Z,12.80
2019-05-29T23:23:42.093Z,12.70
2019-05-29T23:26:11.643Z,12.60
2019-05-29T23:28:41.126Z,12.60
2019-05-29T23:31:11.322Z,12.70
2019-05-29T23:33:41.076Z,12.70
2019-05-29T23:36:10.243Z,12.60
2019-05-29T23:38:40.193Z,12.60
2019-05-29T23:41:09.848Z,12.60
2019-05-29T23:43:39.289Z,12.60
2019-05-29T23:46:08.397Z,12.60
2019-05-29T23:48:38.152Z,12.60
2019-05-29T23:51:07.973Z,12.60
2019-05-29T23:53:37.411Z,12.60
2019-05-29T23:56:06.631Z,12.60
2019-05-29T23:58:36.289Z,12.60
